x-trader.net alexa rank chart, x-trader.net alexa rank daily changes

x-trader.net alexa rank chart, x-trader.net alexa rank daily changes

x-trader.net
Actual rank:
325 862

RANK HISTORY

Date Rank Diff
2017/09/26 325 862 +8 913
2017/09/25 316 949 -9 672
2017/09/24 326 621 +4 234
2017/09/23 322 387 +3 617
2017/09/22 318 770 +6 138
2017/09/20 312 632 +3 537
2017/09/19 309 095 +8 471
2017/09/18 300 624 +637
2017/09/17 299 987 +11 676
2017/09/16 288 311 -5 343
2017/09/15 293 654 +10 450
2017/09/14 283 204 +3 275
2017/09/13 279 929 -6 597
2017/09/12 286 526 +6 889
2017/09/11 279 637 +5 355
2017/09/10 274 282 +9 564
2017/09/09 264 718 +5 749
2017/09/08 258 969 +4 193
2017/09/07 254 776 -9 275
2017/09/06 264 051 +1 938
2017/09/05 262 113 +6 194
2017/09/04 255 919 -6 381
2017/09/03 262 300 +4 600
2017/09/02 257 700 +11 272
2017/09/01 246 428 +6 924
2017/08/31 239 504 +2 398
2017/08/30 237 106 +8 133
2017/08/29 228 973 +5 963
2017/08/28 223 010 -308
2017/08/27 223 318 +3 265
2017/08/26 220 053 +4 143
2017/08/25 215 910 +1 729
2017/08/24 214 181 +3 067
2017/08/23 211 114 +3 350
2017/08/22 207 764 +129
2017/08/21 207 635 +3 660
2017/08/20 203 975 +6 572
2017/08/19 197 403 -1 139
2017/08/18 198 542 -1 791
2017/08/17 200 333 -3 396
2017/08/16 203 729 +6 189
2017/08/15 197 540 +735
2017/08/14 196 805 +3 003
2017/08/13 193 802 +7 577
2017/08/12 186 225 +2 313
2017/08/11 183 912 -2 116
2017/08/10 186 028 -4 341
2017/08/09 190 369 +2 394
2017/08/08 187 975 +3 605
2017/08/07 184 370 +3 740
2017/08/06 180 630 +2 704
2017/08/05 177 926 +1 896
2017/08/04 176 030 +2 726
2017/08/03 173 304 +1 528
2017/08/02 171 776 +808
2017/08/01 170 968 +409
2017/07/31 170 559 +3 798
2017/07/30 166 761 -1 737
2017/07/29 168 498 +1 524
2017/07/28 166 974

WIDGET FOR YOUR SITE

DOMAINS WITH THE NEAREST RANK

Domain Rank
tarbil.gov.tr 325 857
matrixformedia.com 325 858
altporns.com 325 859
rh-comp.blogspot.co.id 325 860
lesplansduweb.com 325 861
x-trader.net 325 862
meritline.com 325 863
twitchtemple.com 325 864
zkjellberg.github.io 325 865
eht.k12.nj.us 325 866
hbng.com 325 867

DOMAINS WITH THE NEAREST RANK BY TLD .net

Domain Rank
4qx.net 325 821
tvnewstalk.net 325 824
thanhlinh.net 325 839
dotnetcademy.net 325 842
postgah.net 325 849
x-trader.net 325 862
cbi.net 325 870
easywelfare.net 325 893
temporada-alta.net 325 917
casino-pp.net 325 922
surf-stick.net 325 943